sensor_id;sensor_type;location;lat;lon;timestamp;pressure;altitude;pressure_sealevel;temperature
78225;BMP280;67498;53.650;10.090;2023-06-24T00:02:22;102217.72;;;16.33
78225;BMP280;67498;53.650;10.090;2023-06-24T00:04:51;102223.72;;;16.33
78225;BMP280;67498;53.650;10.090;2023-06-24T00:07:19;102231.41;;;16.24
78225;BMP280;67498;53.650;10.090;2023-06-24T00:09:47;102230.28;;;16.25
78225;BMP280;67498;53.650;10.090;2023-06-24T00:12:12;102216.09;;;16.15
78225;BMP280;67498;53.650;10.090;2023-06-24T00:14:43;102232.66;;;16.16
78225;BMP280;67498;53.650;10.090;2023-06-24T00:17:09;102231.59;;;16.10
78225;BMP280;67498;53.650;10.090;2023-06-24T00:19:34;102241.78;;;16.08
78225;BMP280;67498;53.650;10.090;2023-06-24T00:21:59;102220.13;;;15.93
78225;BMP280;67498;53.650;10.090;2023-06-24T00:24:28;102233.31;;;15.93
78225;BMP280;67498;53.650;10.090;2023-06-24T00:26:55;102235.22;;;15.89
78225;BMP280;67498;53.650;10.090;2023-06-24T00:29:21;102245.38;;;15.90
78225;BMP280;67498;53.650;10.090;2023-06-24T00:31:47;102239.41;;;15.86
78225;BMP280;67498;53.650;10.090;2023-06-24T00:34:13;102225.56;;;15.79
78225;BMP280;67498;53.650;10.090;2023-06-24T00:36:38;102245.84;;;15.82
78225;BMP280;67498;53.650;10.090;2023-06-24T00:39:04;102249.25;;;15.79
78225;BMP280;67498;53.650;10.090;2023-06-24T00:41:34;102228.72;;;15.67
78225;BMP280;67498;53.650;10.090;2023-06-24T00:43:59;102255.38;;;15.72
78225;BMP280;67498;53.650;10.090;2023-06-24T00:46:25;102236.00;;;15.52
78225;BMP280;67498;53.650;10.090;2023-06-24T00:48:55;102255.47;;;15.61
78225;BMP280;67498;53.650;10.090;2023-06-24T00:51:20;102251.38;;;15.57
78225;BMP280;67498;53.650;10.090;2023-06-24T00:53:47;102259.72;;;15.52
78225;BMP280;67498;53.650;10.090;2023-06-24T00:56:13;102252.25;;;15.47
78225;BMP280;67498;53.650;10.090;2023-06-24T00:58:40;102260.16;;;15.43
78225;BMP280;67498;53.650;10.090;2023-06-24T01:01:07;102250.09;;;15.34
78225;BMP280;67498;53.650;10.090;2023-06-24T01:03:34;102253.13;;;15.33
78225;BMP280;67498;53.650;10.090;2023-06-24T01:06:00;102261.38;;;15.35
78225;BMP280;67498;53.650;10.090;2023-06-24T01:08:25;102258.41;;;15.29
78225;BMP280;67498;53.650;10.090;2023-06-24T01:10:51;102247.22;;;15.18
78225;BMP280;67498;53.650;10.090;2023-06-24T01:13:16;102254.34;;;15.21
78225;BMP280;67498;53.650;10.090;2023-06-24T01:15:42;102256.25;;;15.17
78225;BMP280;67498;53.650;10.090;2023-06-24T01:18:16;102255.50;;;15.20
78225;BMP280;67498;53.650;10.090;2023-06-24T01:21:01;102255.19;;;15.11
78225;BMP280;67498;53.650;10.090;2023-06-24T01:23:50;102273.56;;;15.14
78225;BMP280;67498;53.650;10.090;2023-06-24T01:34:36;102274.84;;;14.96
78225;BMP280;67498;53.650;10.090;2023-06-24T01:37:17;102268.06;;;14.95
78225;BMP280;67498;53.650;10.090;2023-06-24T01:42:37;102281.59;;;14.93
78225;BMP280;67498;53.650;10.090;2023-06-24T01:45:05;102279.34;;;14.95
78225;BMP280;67498;53.650;10.090;2023-06-24T01:47:31;102274.88;;;14.92
78225;BMP280;67498;53.650;10.090;2023-06-24T01:49:58;102276.38;;;14.89
78225;BMP280;67498;53.650;10.090;2023-06-24T01:52:26;102270.03;;;14.83
78225;BMP280;67498;53.650;10.090;2023-06-24T01:54:55;102273.81;;;14.82
78225;BMP280;67498;53.650;10.090;2023-06-24T01:57:21;102273.06;;;14.78
78225;BMP280;67498;53.650;10.090;2023-06-24T01:59:48;102266.72;;;14.72
78225;BMP280;67498;53.650;10.090;2023-06-24T02:02:15;102277.63;;;14.71
78225;BMP280;67498;53.650;10.090;2023-06-24T02:04:42;102285.50;;;14.74
78225;BMP280;67498;53.650;10.090;2023-06-24T02:07:09;102267.13;;;14.63
78225;BMP280;67498;53.650;10.090;2023-06-24T02:09:36;102272.06;;;14.61
78225;BMP280;67498;53.650;10.090;2023-06-24T02:12:02;102283.66;;;14.64
78225;BMP280;67498;53.650;10.090;2023-06-24T02:14:29;102282.16;;;14.63
78225;BMP280;67498;53.650;10.090;2023-06-24T02:16:56;102278.06;;;14.58
78225;BMP280;67498;53.650;10.090;2023-06-24T02:19:26;102282.56;;;14.58
78225;BMP280;67498;53.650;10.090;2023-06-24T02:21:54;102281.84;;;14.54
78225;BMP280;67498;53.650;10.090;2023-06-24T02:24:20;102279.97;;;14.51
78225;BMP280;67498;53.650;10.090;2023-06-24T02:26:46;102290.13;;;14.45
78225;BMP280;67498;53.650;10.090;2023-06-24T02:29:12;102294.66;;;14.45
78225;BMP280;67498;53.650;10.090;2023-06-24T02:31:38;102287.56;;;14.38
78225;BMP280;67498;53.650;10.090;2023-06-24T02:34:03;102288.69;;;14.33
78225;BMP280;67498;53.650;10.090;2023-06-24T02:36:29;102294.31;;;14.35
78225;BMP280;67498;53.650;10.090;2023-06-24T02:38:54;102294.34;;;14.28
78225;BMP280;67498;53.650;10.090;2023-06-24T02:41:19;102294.38;;;14.25
78225;BMP280;67498;53.650;10.090;2023-06-24T02:43:44;102304.09;;;14.28
78225;BMP280;67498;53.650;10.090;2023-06-24T02:46:10;102294.75;;;14.20
78225;BMP280;67498;53.650;10.090;2023-06-24T02:48:36;102300.78;;;14.20
78225;BMP280;67498;53.650;10.090;2023-06-24T02:51:03;102307.88;;;14.23
78225;BMP280;67498;53.650;10.090;2023-06-24T02:53:29;102298.88;;;14.17
78225;BMP280;67498;53.650;10.090;2023-06-24T02:55:56;102307.16;;;14.15
78225;BMP280;67498;53.650;10.090;2023-06-24T02:58:23;102301.13;;;14.15
78225;BMP280;67498;53.650;10.090;2023-06-24T03:00:49;102298.16;;;14.13
78225;BMP280;67498;53.650;10.090;2023-06-24T03:03:15;102307.91;;;14.12
78225;BMP280;67498;53.650;10.090;2023-06-24T03:05:41;102291.41;;;14.05
78225;BMP280;67498;53.650;10.090;2023-06-24T03:08:07;102306.03;;;14.09
78225;BMP280;67498;53.650;10.090;2023-06-24T03:10:36;102304.16;;;14.10
78225;BMP280;67498;53.650;10.090;2023-06-24T03:13:01;102310.16;;;14.10
78225;BMP280;67498;53.650;10.090;2023-06-24T03:15:26;102316.91;;;14.11
78225;BMP280;67498;53.650;10.090;2023-06-24T03:17:53;102301.91;;;14.05
78225;BMP280;67498;53.650;10.090;2023-06-24T03:20:19;102308.69;;;14.06
78225;BMP280;67498;53.650;10.090;2023-06-24T03:22:45;102311.28;;;14.13
78225;BMP280;67498;53.650;10.090;2023-06-24T03:25:10;102295.16;;;14.00
78225;BMP280;67498;53.650;10.090;2023-06-24T03:27:35;102319.19;;;14.13
78225;BMP280;67498;53.650;10.090;2023-06-24T03:30:02;102315.03;;;14.12
78225;BMP280;67498;53.650;10.090;2023-06-24T03:32:27;102306.78;;;14.03
78225;BMP280;67498;53.650;10.090;2023-06-24T03:34:52;102307.53;;;14.10
78225;BMP280;67498;53.650;10.090;2023-06-24T03:37:18;102315.41;;;14.14
78225;BMP280;67498;53.650;10.090;2023-06-24T03:39:43;102312.81;;;14.07
78225;BMP280;67498;53.650;10.090;2023-06-24T03:42:08;102304.91;;;14.07
78225;BMP280;67498;53.650;10.090;2023-06-24T03:44:34;102315.78;;;14.09
78225;BMP280;67498;53.650;10.090;2023-06-24T03:46:59;102319.88;;;14.21
78225;BMP280;67498;53.650;10.090;2023-06-24T03:49:24;102312.00;;;14.17
78225;BMP280;67498;53.650;10.090;2023-06-24T03:51:49;102316.53;;;14.20
78225;BMP280;67498;53.650;10.090;2023-06-24T03:54:15;102313.50;;;14.22
78225;BMP280;67498;53.650;10.090;2023-06-24T03:56:40;102319.09;;;14.31
78225;BMP280;67498;53.650;10.090;2023-06-24T03:59:05;102323.22;;;14.35
78225;BMP280;67498;53.650;10.090;2023-06-24T04:01:31;102338.97;;;14.46
78225;BMP280;67498;53.650;10.090;2023-06-24T04:03:57;102338.16;;;14.53
78225;BMP280;67498;53.650;10.090;2023-06-24T04:06:23;102329.88;;;14.58
78225;BMP280;67498;53.650;10.090;2023-06-24T04:08:48;102326.50;;;14.57
78225;BMP280;67498;53.650;10.090;2023-06-24T04:11:13;102330.97;;;14.71
78225;BMP280;67498;53.650;10.090;2023-06-24T04:13:39;102332.06;;;14.77
78225;BMP280;67498;53.650;10.090;2023-06-24T04:16:04;102328.63;;;14.84
78225;BMP280;67498;53.650;10.090;2023-06-24T04:18:29;102323.00;;;14.85
78225;BMP280;67498;53.650;10.090;2023-06-24T04:20:55;102334.22;;;14.93
78225;BMP280;67498;53.650;10.090;2023-06-24T04:23:20;102330.44;;;14.98
78225;BMP280;67498;53.650;10.090;2023-06-24T04:25:45;102319.53;;;14.99
78225;BMP280;67498;53.650;10.090;2023-06-24T04:28:10;102306.03;;;14.97
78225;BMP280;67498;53.650;10.090;2023-06-24T04:30:36;102316.81;;;15.13
78225;BMP280;67498;53.650;10.090;2023-06-24T04:33:03;102323.56;;;15.18
78225;BMP280;67498;53.650;10.090;2023-06-24T04:35:29;102317.50;;;15.18
78225;BMP280;67498;53.650;10.090;2023-06-24T04:37:55;102326.09;;;15.29
78225;BMP280;67498;53.650;10.090;2023-06-24T04:40:20;102327.94;;;15.35
78225;BMP280;67498;53.650;10.090;2023-06-24T04:42:46;102334.28;;;15.42
78225;BMP280;67498;53.650;10.090;2023-06-24T04:45:11;102342.13;;;15.49
78225;BMP280;67498;53.650;10.090;2023-06-24T04:47:37;102340.59;;;15.51
78225;BMP280;67498;53.650;10.090;2023-06-24T04:50:02;102343.13;;;15.62
78225;BMP280;67498;53.650;10.090;2023-06-24T04:52:28;102331.78;;;15.69
78225;BMP280;67498;53.650;10.090;2023-06-24T04:54:53;102340.41;;;15.73
78225;BMP280;67498;53.650;10.090;2023-06-24T04:57:28;102336.25;;;15.75
78225;BMP280;67498;53.650;10.090;2023-06-24T04:59:54;102340.63;;;15.89
78225;BMP280;67498;53.650;10.090;2023-06-24T05:02:20;102338.25;;;15.98
78225;BMP280;67498;53.650;10.090;2023-06-24T05:04:45;102341.53;;;16.06
78225;BMP280;67498;53.650;10.090;2023-06-24T05:07:10;102339.25;;;16.11
78225;BMP280;67498;53.650;10.090;2023-06-24T05:09:35;102339.09;;;16.22
78225;BMP280;67498;53.650;10.090;2023-06-24T05:12:04;102333.41;;;16.27
78225;BMP280;67498;53.650;10.090;2023-06-24T05:14:30;102343.03;;;16.41
78225;BMP280;67498;53.650;10.090;2023-06-24T05:16:55;102336.53;;;16.49
78225;BMP280;67498;53.650;10.090;2023-06-24T05:19:20;102338.56;;;16.69
78225;BMP280;67498;53.650;10.090;2023-06-24T05:21:46;102339.78;;;16.87
78225;BMP280;67498;53.650;10.090;2023-06-24T05:24:11;102333.38;;;17.12
78225;BMP280;67498;53.650;10.090;2023-06-24T05:26:36;102331.97;;;18.10
78225;BMP280;67498;53.650;10.090;2023-06-24T05:29:01;102342.91;;;19.43
78225;BMP280;67498;53.650;10.090;2023-06-24T05:31:27;102335.59;;;20.52
78225;BMP280;67498;53.650;10.090;2023-06-24T05:33:52;102337.34;;;21.69
78225;BMP280;67498;53.650;10.090;2023-06-24T05:36:17;102336.97;;;22.65
78225;BMP280;67498;53.650;10.090;2023-06-24T05:38:42;102331.38;;;23.52
78225;BMP280;67498;53.650;10.090;2023-06-24T05:41:08;102324.22;;;24.15
78225;BMP280;67498;53.650;10.090;2023-06-24T05:43:33;102317.78;;;24.60
78225;BMP280;67498;53.650;10.090;2023-06-24T05:45:58;102331.44;;;25.21
78225;BMP280;67498;53.650;10.090;2023-06-24T05:48:24;102328.69;;;25.51
78225;BMP280;67498;53.650;10.090;2023-06-24T05:50:49;102333.13;;;25.94
78225;BMP280;67498;53.650;10.090;2023-06-24T05:53:14;102336.72;;;26.58
78225;BMP280;67498;53.650;10.090;2023-06-24T05:55:39;102338.06;;;27.05
78225;BMP280;67498;53.650;10.090;2023-06-24T05:58:05;102349.53;;;27.49
78225;BMP280;67498;53.650;10.090;2023-06-24T06:00:30;102357.31;;;27.95
78225;BMP280;67498;53.650;10.090;2023-06-24T06:02:55;102339.72;;;27.99
78225;BMP280;67498;53.650;10.090;2023-06-24T06:05:21;102355.44;;;28.29
78225;BMP280;67498;53.650;10.090;2023-06-24T06:07:46;102363.25;;;28.55
78225;BMP280;67498;53.650;10.090;2023-06-24T06:10:11;102366.69;;;28.83
78225;BMP280;67498;53.650;10.090;2023-06-24T06:12:36;102368.84;;;29.07
78225;BMP280;67498;53.650;10.090;2023-06-24T06:15:02;102360.28;;;29.14
78225;BMP280;67498;53.650;10.090;2023-06-24T06:17:27;102361.44;;;29.30
78225;BMP280;67498;53.650;10.090;2023-06-24T06:19:53;102377.38;;;29.28
78225;BMP280;67498;53.650;10.090;2023-06-24T06:22:18;102382.72;;;29.34
78225;BMP280;67498;53.650;10.090;2023-06-24T06:24:43;102361.41;;;29.47
78225;BMP280;67498;53.650;10.090;2023-06-24T06:27:10;102366.34;;;29.15
78225;BMP280;67498;53.650;10.090;2023-06-24T06:29:36;102373.50;;;28.79
78225;BMP280;67498;53.650;10.090;2023-06-24T06:32:02;102371.75;;;29.09
78225;BMP280;67498;53.650;10.090;2023-06-24T06:34:27;102367.13;;;29.10
78225;BMP280;67498;53.650;10.090;2023-06-24T06:36:52;102372.31;;;28.63
78225;BMP280;67498;53.650;10.090;2023-06-24T06:39:17;102370.59;;;28.60
78225;BMP280;67498;53.650;10.090;2023-06-24T06:41:49;102370.81;;;28.28
78225;BMP280;67498;53.650;10.090;2023-06-24T06:44:14;102376.25;;;27.69
78225;BMP280;67498;53.650;10.090;2023-06-24T06:46:39;102370.72;;;27.04
78225;BMP280;67498;53.650;10.090;2023-06-24T06:49:05;102374.09;;;26.99
78225;BMP280;67498;53.650;10.090;2023-06-24T06:51:30;102372.94;;;27.42
78225;BMP280;67498;53.650;10.090;2023-06-24T06:53:55;102380.94;;;27.31
78225;BMP280;67498;53.650;10.090;2023-06-24T06:56:24;102361.84;;;27.66
78225;BMP280;67498;53.650;10.090;2023-06-24T06:58:50;102379.84;;;28.31
78225;BMP280;67498;53.650;10.090;2023-06-24T07:01:17;102374.72;;;28.33
78225;BMP280;67498;53.650;10.090;2023-06-24T07:03:43;102379.91;;;27.77
78225;BMP280;67498;53.650;10.090;2023-06-24T07:06:08;102366.72;;;27.25
78225;BMP280;67498;53.650;10.090;2023-06-24T07:08:33;102374.34;;;26.95
78225;BMP280;67498;53.650;10.090;2023-06-24T07:10:59;102370.94;;;26.69
78225;BMP280;67498;53.650;10.090;2023-06-24T07:13:24;102363.09;;;26.39
78225;BMP280;67498;53.650;10.090;2023-06-24T07:15:49;102358.97;;;26.18
78225;BMP280;67498;53.650;10.090;2023-06-24T07:18:14;102371.69;;;26.03
78225;BMP280;67498;53.650;10.090;2023-06-24T07:20:40;102371.44;;;26.01
78225;BMP280;67498;53.650;10.090;2023-06-24T07:23:05;102367.66;;;26.13
78225;BMP280;67498;53.650;10.090;2023-06-24T07:25:30;102372.25;;;26.07
78225;BMP280;67498;53.650;10.090;2023-06-24T07:27:55;102384.00;;;25.94
78225;BMP280;67498;53.650;10.090;2023-06-24T07:30:21;102381.69;;;26.02
78225;BMP280;67498;53.650;10.090;2023-06-24T07:32:46;102383.34;;;26.20
78225;BMP280;67498;53.650;10.090;2023-06-24T07:35:11;102385.28;;;26.19
78225;BMP280;67498;53.650;10.090;2023-06-24T07:37:38;102377.38;;;26.10
78225;BMP280;67498;53.650;10.090;2023-06-24T07:40:05;102367.97;;;26.15
78225;BMP280;67498;53.650;10.090;2023-06-24T07:42:31;102405.03;;;26.22
78225;BMP280;67498;53.650;10.090;2023-06-24T07:44:56;102403.88;;;26.49
78225;BMP280;67498;53.650;10.090;2023-06-24T07:47:21;102399.47;;;26.72
78225;BMP280;67498;53.650;10.090;2023-06-24T07:49:47;102385.84;;;26.49
78225;BMP280;67498;53.650;10.090;2023-06-24T07:52:12;102390.31;;;26.12
78225;BMP280;67498;53.650;10.090;2023-06-24T07:54:37;102392.06;;;25.59
78225;BMP280;67498;53.650;10.090;2023-06-24T07:57:03;102387.88;;;25.23
78225;BMP280;67498;53.650;10.090;2023-06-24T07:59:28;102391.75;;;24.93
78225;BMP280;67498;53.650;10.090;2023-06-24T08:01:53;102398.44;;;24.73
78225;BMP280;67498;53.650;10.090;2023-06-24T08:04:19;102387.16;;;24.54
78225;BMP280;67498;53.650;10.090;2023-06-24T08:06:44;102381.22;;;24.36
78225;BMP280;67498;53.650;10.090;2023-06-24T08:09:10;102384.94;;;24.29
78225;BMP280;67498;53.650;10.090;2023-06-24T08:11:35;102372.00;;;24.37
78225;BMP280;67498;53.650;10.090;2023-06-24T08:14:00;102371.06;;;24.64
78225;BMP280;67498;53.650;10.090;2023-06-24T08:16:27;102368.66;;;24.66
78225;BMP280;67498;53.650;10.090;2023-06-24T08:18:52;102373.72;;;24.64
78225;BMP280;67498;53.650;10.090;2023-06-24T08:21:18;102367.59;;;24.48
78225;BMP280;67498;53.650;10.090;2023-06-24T08:23:43;102367.97;;;24.41
78225;BMP280;67498;53.650;10.090;2023-06-24T08:26:09;102371.59;;;24.53
78225;BMP280;67498;53.650;10.090;2023-06-24T08:28:35;102367.84;;;24.59
78225;BMP280;67498;53.650;10.090;2023-06-24T08:31:00;102363.50;;;24.62
78225;BMP280;67498;53.650;10.090;2023-06-24T08:33:25;102373.59;;;24.58
78225;BMP280;67498;53.650;10.090;2023-06-24T08:35:50;102367.59;;;24.48
78225;BMP280;67498;53.650;10.090;2023-06-24T08:38:16;102374.25;;;24.53
78225;BMP280;67498;53.650;10.090;2023-06-24T08:40:41;102369.53;;;24.48
78225;BMP280;67498;53.650;10.090;2023-06-24T08:43:09;102367.50;;;24.43
78225;BMP280;67498;53.650;10.090;2023-06-24T08:45:34;102361.16;;;24.40
78225;BMP280;67498;53.650;10.090;2023-06-24T08:48:00;102360.22;;;24.43
78225;BMP280;67498;53.650;10.090;2023-06-24T08:50:33;102350.03;;;24.32
78225;BMP280;67498;53.650;10.090;2023-06-24T08:53:02;102372.69;;;24.46
78225;BMP280;67498;53.650;10.090;2023-06-24T08:55:29;102359.25;;;24.55
78225;BMP280;67498;53.650;10.090;2023-06-24T08:57:56;102356.84;;;24.57
78225;BMP280;67498;53.650;10.090;2023-06-24T09:00:21;102366.97;;;24.53
78225;BMP280;67498;53.650;10.090;2023-06-24T09:02:47;102361.19;;;24.55
78225;BMP280;67498;53.650;10.090;2023-06-24T09:05:12;102371.31;;;24.66
78225;BMP280;67498;53.650;10.090;2023-06-24T09:07:37;102366.72;;;24.66
78225;BMP280;67498;53.650;10.090;2023-06-24T09:10:03;102370.81;;;24.76
78225;BMP280;67498;53.650;10.090;2023-06-24T09:12:31;102370.88;;;24.82
78225;BMP280;67498;53.650;10.090;2023-06-24T09:14:57;102371.34;;;24.80
78225;BMP280;67498;53.650;10.090;2023-06-24T09:17:22;102378.00;;;24.85
78225;BMP280;67498;53.650;10.090;2023-06-24T09:19:48;102357.81;;;24.84
78225;BMP280;67498;53.650;10.090;2023-06-24T09:22:14;102373.03;;;24.93
78225;BMP280;67498;53.650;10.090;2023-06-24T09:24:46;102367.31;;;25.00
78225;BMP280;67498;53.650;10.090;2023-06-24T09:27:14;102365.47;;;25.06
78225;BMP280;67498;53.650;10.090;2023-06-24T09:29:40;102375.06;;;25.12
78225;BMP280;67498;53.650;10.090;2023-06-24T09:32:07;102368.47;;;25.13
78225;BMP280;67498;53.650;10.090;2023-06-24T09:34:33;102364.63;;;25.14
78225;BMP280;67498;53.650;10.090;2023-06-24T09:36:59;102364.69;;;25.20
78225;BMP280;67498;53.650;10.090;2023-06-24T09:39:26;102359.72;;;25.28
78225;BMP280;67498;53.650;10.090;2023-06-24T09:41:56;102345.91;;;25.29
78225;BMP280;67498;53.650;10.090;2023-06-24T09:44:21;102361.56;;;25.36
78225;BMP280;67498;53.650;10.090;2023-06-24T09:46:47;102362.41;;;25.42
78225;BMP280;67498;53.650;10.090;2023-06-24T09:49:13;102359.34;;;25.50
78225;BMP280;67498;53.650;10.090;2023-06-24T09:51:42;102358.00;;;25.60
78225;BMP280;67498;53.650;10.090;2023-06-24T09:54:09;102345.81;;;25.59
78225;BMP280;67498;53.650;10.090;2023-06-24T09:56:36;102351.28;;;25.64
78225;BMP280;67498;53.650;10.090;2023-06-24T09:59:05;102336.56;;;25.75
78225;BMP280;67498;53.650;10.090;2023-06-24T10:01:31;102337.47;;;25.92
78225;BMP280;67498;53.650;10.090;2023-06-24T10:03:58;102337.16;;;26.05
78225;BMP280;67498;53.650;10.090;2023-06-24T10:06:24;102338.88;;;26.28
78225;BMP280;67498;53.650;10.090;2023-06-24T10:09:09;102339.47;;;26.38
78225;BMP280;67498;53.650;10.090;2023-06-24T10:11:34;102331.63;;;26.34
78225;BMP280;67498;53.650;10.090;2023-06-24T10:14:00;102335.28;;;26.37
78225;BMP280;67498;53.650;10.090;2023-06-24T10:16:25;102332.06;;;26.33
78225;BMP280;67498;53.650;10.090;2023-06-24T10:18:51;102332.06;;;26.33
78225;BMP280;67498;53.650;10.090;2023-06-24T10:21:16;102328.94;;;26.34
78225;BMP280;67498;53.650;10.090;2023-06-24T10:23:52;102323.84;;;26.36
78225;BMP280;67498;53.650;10.090;2023-06-24T10:26:30;102317.75;;;26.36
78225;BMP280;67498;53.650;10.090;2023-06-24T10:36:53;102319.53;;;26.44
78225;BMP280;67498;53.650;10.090;2023-06-24T10:44:50;102314.66;;;26.43
78225;BMP280;67498;53.650;10.090;2023-06-24T10:47:16;102314.66;;;26.43
78225;BMP280;67498;53.650;10.090;2023-06-24T10:49:41;102322.22;;;26.44
78225;BMP280;67498;53.650;10.090;2023-06-24T10:52:10;102312.75;;;26.49
78225;BMP280;67498;53.650;10.090;2023-06-24T10:54:39;102313.03;;;26.51
78225;BMP280;67498;53.650;10.090;2023-06-24T10:57:06;102303.53;;;26.55
78225;BMP280;67498;53.650;10.090;2023-06-24T10:59:35;102297.75;;;26.63
78225;BMP280;67498;53.650;10.090;2023-06-24T11:02:00;102302.16;;;26.66
78225;BMP280;67498;53.650;10.090;2023-06-24T11:04:26;102299.44;;;26.54
78225;BMP280;67498;53.650;10.090;2023-06-24T11:07:02;102282.31;;;26.52
78225;BMP280;67498;53.650;10.090;2023-06-24T11:09:27;102282.09;;;26.55
78225;BMP280;67498;53.650;10.090;2023-06-24T11:11:53;102285.25;;;26.54
78225;BMP280;67498;53.650;10.090;2023-06-24T11:14:22;102289.19;;;26.59
78225;BMP280;67498;53.650;10.090;2023-06-24T11:16:47;102284.34;;;26.63
78225;BMP280;67498;53.650;10.090;2023-06-24T11:19:12;102273.38;;;26.61
78225;BMP280;67498;53.650;10.090;2023-06-24T11:21:38;102282.09;;;26.55
78225;BMP280;67498;53.650;10.090;2023-06-24T11:24:03;102285.78;;;26.58
78225;BMP280;67498;53.650;10.090;2023-06-24T11:26:29;102289.53;;;26.66
78225;BMP280;67498;53.650;10.090;2023-06-24T11:28:55;102288.34;;;26.73
78225;BMP280;67498;53.650;10.090;2023-06-24T11:31:25;102281.09;;;26.84
78225;BMP280;67498;53.650;10.090;2023-06-24T11:33:50;102287.28;;;26.96
78225;BMP280;67498;53.650;10.090;2023-06-24T11:36:17;102284.41;;;27.00
78225;BMP280;67498;53.650;10.090;2023-06-24T11:38:45;102279.03;;;27.05
78225;BMP280;67498;53.650;10.090;2023-06-24T11:41:10;102285.91;;;27.12
78225;BMP280;67498;53.650;10.090;2023-06-24T11:43:36;102286.22;;;27.25
78225;BMP280;67498;53.650;10.090;2023-06-24T11:46:01;102283.88;;;27.38
78225;BMP280;67498;53.650;10.090;2023-06-24T11:48:29;102272.91;;;27.48
78225;BMP280;67498;53.650;10.090;2023-06-24T11:50:55;102274.63;;;27.56
78225;BMP280;67498;53.650;10.090;2023-06-24T11:53:30;102268.56;;;27.61
78225;BMP280;67498;53.650;10.090;2023-06-24T11:56:05;102271.75;;;27.71
78225;BMP280;67498;53.650;10.090;2023-06-24T11:58:34;102271.31;;;27.78
78225;BMP280;67498;53.650;10.090;2023-06-24T12:01:00;102272.28;;;27.86
78225;BMP280;67498;53.650;10.090;2023-06-24T12:03:28;102251.75;;;27.83
78225;BMP280;67498;53.650;10.090;2023-06-24T12:05:53;102260.09;;;27.85
78225;BMP280;67498;53.650;10.090;2023-06-24T12:08:19;102258.38;;;27.88
78225;BMP280;67498;53.650;10.090;2023-06-24T12:10:45;102257.91;;;28.01
78225;BMP280;67498;53.650;10.090;2023-06-24T12:13:10;102263.28;;;28.01
78225;BMP280;67498;53.650;10.090;2023-06-24T12:15:35;102260.81;;;27.86
78225;BMP280;67498;53.650;10.090;2023-06-24T12:18:01;102268.09;;;27.68
78225;BMP280;67498;53.650;10.090;2023-06-24T12:20:28;102256.09;;;27.53
78225;BMP280;67498;53.650;10.090;2023-06-24T12:22:53;102250.94;;;27.49
78225;BMP280;67498;53.650;10.090;2023-06-24T12:25:19;102255.16;;;27.67
78225;BMP280;67498;53.650;10.090;2023-06-24T12:27:44;102259.13;;;27.88
78225;BMP280;67498;53.650;10.090;2023-06-24T12:30:11;102260.09;;;27.96
78225;BMP280;67498;53.650;10.090;2023-06-24T12:32:36;102250.81;;;28.03
78225;BMP280;67498;53.650;10.090;2023-06-24T12:35:02;102256.69;;;28.07
78225;BMP280;67498;53.650;10.090;2023-06-24T12:37:32;102257.66;;;28.15
78225;BMP280;67498;53.650;10.090;2023-06-24T12:39:58;102262.03;;;28.18
78225;BMP280;67498;53.650;10.090;2023-06-24T12:42:24;102261.06;;;28.27
78225;BMP280;67498;53.650;10.090;2023-06-24T12:44:50;102261.09;;;28.21
78225;BMP280;67498;53.650;10.090;2023-06-24T12:47:15;102262.53;;;27.94
78225;BMP280;67498;53.650;10.090;2023-06-24T12:49:40;102251.06;;;27.83
78225;BMP280;67498;53.650;10.090;2023-06-24T12:52:06;102253.75;;;27.88
78225;BMP280;67498;53.650;10.090;2023-06-24T12:54:31;102240.06;;;27.92
78225;BMP280;67498;53.650;10.090;2023-06-24T12:56:56;102245.16;;;27.73
78225;BMP280;67498;53.650;10.090;2023-06-24T12:59:22;102251.66;;;27.44
78225;BMP280;67498;53.650;10.090;2023-06-24T13:01:48;102255.84;;;27.45
78225;BMP280;67498;53.650;10.090;2023-06-24T13:04:13;102245.63;;;27.60
78225;BMP280;67498;53.650;10.090;2023-06-24T13:06:38;102238.03;;;27.59
78225;BMP280;67498;53.650;10.090;2023-06-24T13:09:03;102237.09;;;27.73
78225;BMP280;67498;53.650;10.090;2023-06-24T13:11:29;102246.66;;;27.91
78225;BMP280;67498;53.650;10.090;2023-06-24T13:13:54;102240.31;;;28.11
78225;BMP280;67498;53.650;10.090;2023-06-24T13:16:20;102240.81;;;28.26
78225;BMP280;67498;53.650;10.090;2023-06-24T13:18:46;102238.34;;;28.39
78225;BMP280;67498;53.650;10.090;2023-06-24T13:21:11;102232.94;;;28.56
78225;BMP280;67498;53.650;10.090;2023-06-24T13:23:36;102226.56;;;28.70
78225;BMP280;67498;53.650;10.090;2023-06-24T13:26:04;102227.97;;;28.88
78225;BMP280;67498;53.650;10.090;2023-06-24T13:28:29;102238.00;;;28.82
78225;BMP280;67498;53.650;10.090;2023-06-24T13:30:54;102233.66;;;28.68
78225;BMP280;67498;53.650;10.090;2023-06-24T13:33:20;102235.59;;;28.73
78225;BMP280;67498;53.650;10.090;2023-06-24T13:35:45;102227.28;;;28.88
78225;BMP280;67498;53.650;10.090;2023-06-24T13:38:11;102234.78;;;29.00
78225;BMP280;67498;53.650;10.090;2023-06-24T13:40:37;102237.47;;;29.11
78225;BMP280;67498;53.650;10.090;2023-06-24T13:43:03;102230.75;;;29.24
78225;BMP280;67498;53.650;10.090;2023-06-24T13:45:28;102233.19;;;29.27
78225;BMP280;67498;53.650;10.090;2023-06-24T13:47:53;102223.91;;;29.23
78225;BMP280;67498;53.650;10.090;2023-06-24T13:50:20;102219.78;;;29.22
78225;BMP280;67498;53.650;10.090;2023-06-24T13:52:45;102230.78;;;29.18
78225;BMP280;67498;53.650;10.090;2023-06-24T13:55:11;102231.81;;;29.09
78225;BMP280;67498;53.650;10.090;2023-06-24T13:57:36;102221.88;;;28.93
78225;BMP280;67498;53.650;10.090;2023-06-24T14:00:02;102226.78;;;28.78
78225;BMP280;67498;53.650;10.090;2023-06-24T14:02:27;102220.72;;;28.55
78225;BMP280;67498;53.650;10.090;2023-06-24T14:04:52;102222.50;;;28.36